East Prairie, Missouri
Current Conditions -  °F | °C
As of 6:15 AM on Monday 26 Jan 2015 (Local Time) from KCIR Reporting Station
Scattered Clouds Scattered Clouds  
Wind Chill: 25°   Ceiling: Unl
Heat Index: 33°   Visibility: 10mi
Dew Point: 27°   Wind: 9mph
Humidity: 80%   Direction: 320°NW
Pressure: 30.05"   Gusts: NA
Location:  36.78°N, 89.39°W
Report Text: KCIR 261215Z AUTO 32008KT 10SM SCT018 01/M03 A3005 RMK AO2 T00051026
Loading
Personal Weather Stations






























Interactive Weather Map New forecast layout! Learn more

10-Day Weather Forecast

Advertisements
Track Severe Weather on mobile